Regional Weather

 

KMKL - Jackson, TN, USA
Distance from station: WNW 50mi, 81km
Updated: Fri, Apr-26-2019 10:53am CDT
Clear
Clear
 Wind from NW
Wind: NW 13 mph , 20 km/h
Temperature: 64°F , 18°C
Dew Point: 48°F , 9°C
Humidity: 56%
Barometer: 30.04 inHg , 1017.3 hPa
Clouds: Clear
Visibility: 10 miles , 16 km
2019/04/26 15:53 KMKL 261553Z 31011KT 10SM CLR 18/09 A3004 RMK AO2 SLP170 T01780094
KMEM - Memphis, TN, USA
Distance from station: W 108mi, 173km
Updated: Fri, Apr-26-2019 10:54am CDT
Clear
Clear
 Wind from NNW
Wind: NNW 8 mph , 13 km/h
Temperature: 66°F , 19°C
Dew Point: 52°F , 11°C
Humidity: 60%
Barometer: 30.07 inHg , 1018.3 hPa
Clouds: Clear
Visibility: 10 miles , 16 km
2019/04/26 15:54 KMEM 261554Z 34007KT 10SM CLR 19/11 A3007 RMK AO2 SLP180 T01940106
 
KBNA - Nashville, TN, USA
Distance from station: NE 97mi, 157km
Updated: Fri, Apr-26-2019 10:53am CDT
Few Clouds
Few Clouds
 Wind from NW
Wind: NW 15 mph , 24 km/h
Temperature: 64°F , 18°C
Dew Point: 46°F , 8°C
Humidity: 52%
Barometer: 29.95 inHg , 1014.2 hPa
Clouds: Few Clouds
Visibility: 10 miles , 16 km
Cloud details: Few Clouds 4600 ft
2019/04/26 15:53 KBNA 261553Z 31013KT 10SM FEW046 18/08 A2995 RMK AO2 SLP137 T01830078
KCKV - Clarksville, TN, USA
Distance from station: NNE 99mi, 159km
Updated: Fri, Apr-26-2019 10:52am CDT
Clear
Clear
 Wind from NW
Wind: NW 18 mph , 30 km/h, Gust: 31 mph , 50 km/h
Temperature: 64°F , 18°C
Dew Point: 45°F , 7°C
Humidity: 49%
Barometer: 29.96 inHg , 1014.6 hPa
Clouds: Clear
Visibility: 10 miles , 16 km
2019/04/26 15:52 KCKV 261552Z AUTO 31016G27KT 10SM CLR 18/07 A2996 RMK AO2 PK WND 28027/1544 SLP141 T01780072
 
KPAH - Paducah, KY, USA
Distance from station: NNW 128mi, 205km
Updated: Fri, Apr-26-2019 10:53am CDT
Clear
Clear
 Wind from WNW
Wind: WNW 10 mph , 17 km/h, Gust: 20 mph , 31 km/h
Temperature: 64°F , 18°C
Dew Point: 46°F , 8°C
Humidity: 52%
Barometer: 29.98 inHg , 1015.2 hPa
Clouds: Clear
Visibility: 10 miles , 16 km
2019/04/26 15:53 KPAH 261553Z 29009G17KT 10SM CLR 18/08 A2998 RMK AO2 SLP151 T01830078
KCHA - Chattanooga, TN, USA
Distance from station: E 165mi, 265km
Updated: Fri, Apr-26-2019 10:53am CDT
Partly cloudy
Partly cloudy
 Wind from NNW
Wind: NNW 18 mph , 30 km/h, Gust: 26 mph , 43 km/h
Temperature: 66°F , 19°C
Dew Point: 45°F , 7°C
Humidity: 46%
Barometer: 29.89 inHg , 1012.2 hPa
Clouds: Partly cloudy
Visibility: 10 miles , 16 km
Cloud details: Few Clouds 3000 ft
Partly cloudy 4200 ft
Partly cloudy 5500 ft
2019/04/26 15:53 KCHA 261553Z 33016G23KT 10SM FEW030 SCT042 SCT055 19/07 A2989 RMK AO2 PK WND 32031/1530 SLP117 T01940072 $
 
KTYS - Knoxville, TN, USA
Distance from station: E 234mi, 377km
Updated: Fri, Apr-26-2019 10:53am CDT
Light rain, Mostly cloudy
Light rain, Mostly cloudy
 Wind from W
Wind: W 21 mph , 33 km/h, Gust: 35 mph , 56 km/h
Temperature: 63°F , 17°C
Dew Point: 48°F , 9°C
Humidity: 59%
Barometer: 29.80 inHg , 1009.1 hPa
Summary: Light rain
Clouds: Mostly cloudy
Visibility: 10 miles , 16 km
Cloud details: Few Clouds 3000 ft
Partly cloudy 3800 ft
Mostly cloudy 8000 ft
2019/04/26 15:53 KTYS 261553Z 28018G30KT 10SM -RA FEW030 SCT038 BKN080 17/09 A2980 RMK AO2 PK WND 27030/1551 LTG DSNT NE RAB1455B10E12B52 SLP084 P0000 T01720094 $
KLIT - Little Rock, AR, USA
Distance from station: W 240mi, 386km
Updated: Fri, Apr-26-2019 10:53am CDT
Clear
Clear
 Wind from W
Wind: W 7 mph , 11 km/h
Temperature: 70°F , 21°C
Dew Point: 46°F , 8°C
Humidity: 43%
Barometer: 30.12 inHg , 1020 hPa
Clouds: Clear
Visibility: 10 miles , 16 km
2019/04/26 15:53 KLIT 261553Z 27006KT 10SM CLR 21/08 A3012 RMK AO2 SLP202 T02060078

Refresh Page for latest data.